sensor_id;sensor_type;location;lat;lon;timestamp;temperature;humidity
37868;DHT22;24011;48.880;9.190;2023-03-01T00:01:01;23.80;22.40
37868;DHT22;24011;48.880;9.190;2023-03-01T00:03:38;23.80;22.50
37868;DHT22;24011;48.880;9.190;2023-03-01T00:06:12;23.80;22.50
37868;DHT22;24011;48.880;9.190;2023-03-01T00:08:52;23.80;22.50
37868;DHT22;24011;48.880;9.190;2023-03-01T00:11:27;23.80;23.00
37868;DHT22;24011;48.880;9.190;2023-03-01T00:14:01;23.80;22.50
37868;DHT22;24011;48.880;9.190;2023-03-01T00:16:36;23.70;22.60
37868;DHT22;24011;48.880;9.190;2023-03-01T00:19:14;23.80;22.50
37868;DHT22;24011;48.880;9.190;2023-03-01T00:21:47;23.80;22.50
37868;DHT22;24011;48.880;9.190;2023-03-01T00:24:19;23.80;22.60
37868;DHT22;24011;48.880;9.190;2023-03-01T00:26:53;23.80;22.60
37868;DHT22;24011;48.880;9.190;2023-03-01T00:29:28;23.80;22.60
37868;DHT22;24011;48.880;9.190;2023-03-01T00:32:01;23.70;22.60
37868;DHT22;24011;48.880;9.190;2023-03-01T00:34:43;23.80;22.60
37868;DHT22;24011;48.880;9.190;2023-03-01T00:37:25;23.80;22.60
37868;DHT22;24011;48.880;9.190;2023-03-01T00:39:59;23.70;22.60
37868;DHT22;24011;48.880;9.190;2023-03-01T00:42:37;23.80;22.60
37868;DHT22;24011;48.880;9.190;2023-03-01T00:45:13;23.80;22.60
37868;DHT22;24011;48.880;9.190;2023-03-01T00:47:49;23.70;22.60
37868;DHT22;24011;48.880;9.190;2023-03-01T00:50:25;23.80;22.70
37868;DHT22;24011;48.880;9.190;2023-03-01T00:52:57;23.70;22.70
37868;DHT22;24011;48.880;9.190;2023-03-01T00:55:36;23.80;22.70
37868;DHT22;24011;48.880;9.190;2023-03-01T00:58:08;23.80;22.80
37868;DHT22;24011;48.880;9.190;2023-03-01T01:00:41;23.70;22.70
37868;DHT22;24011;48.880;9.190;2023-03-01T01:03:13;23.70;22.70
37868;DHT22;24011;48.880;9.190;2023-03-01T01:05:50;23.80;22.70
37868;DHT22;24011;48.880;9.190;2023-03-01T01:08:27;23.80;22.80
37868;DHT22;24011;48.880;9.190;2023-03-01T01:10:59;23.70;22.80
37868;DHT22;24011;48.880;9.190;2023-03-01T01:13:30;23.80;22.80
37868;DHT22;24011;48.880;9.190;2023-03-01T01:16:02;23.80;22.90
37868;DHT22;24011;48.880;9.190;2023-03-01T01:18:33;23.70;22.80
37868;DHT22;24011;48.880;9.190;2023-03-01T01:21:10;23.80;22.80
37868;DHT22;24011;48.880;9.190;2023-03-01T01:23:43;23.80;22.90
37868;DHT22;24011;48.880;9.190;2023-03-01T01:26:20;23.70;22.80
37868;DHT22;24011;48.880;9.190;2023-03-01T01:28:57;23.70;22.90
37868;DHT22;24011;48.880;9.190;2023-03-01T01:31:28;23.70;22.90
37868;DHT22;24011;48.880;9.190;2023-03-01T01:34:01;23.70;22.90
37868;DHT22;24011;48.880;9.190;2023-03-01T01:36:38;23.70;22.90
37868;DHT22;24011;48.880;9.190;2023-03-01T01:39:10;23.70;22.90
37868;DHT22;24011;48.880;9.190;2023-03-01T01:41:43;23.70;22.90
37868;DHT22;24011;48.880;9.190;2023-03-01T01:44:18;23.70;22.90
37868;DHT22;24011;48.880;9.190;2023-03-01T01:46:53;23.70;23.00
37868;DHT22;24011;48.880;9.190;2023-03-01T01:49:32;23.70;22.90
37868;DHT22;24011;48.880;9.190;2023-03-01T01:52:13;23.70;22.90
37868;DHT22;24011;48.880;9.190;2023-03-01T01:54:46;23.70;22.90
37868;DHT22;24011;48.880;9.190;2023-03-01T01:57:22;23.70;23.00
37868;DHT22;24011;48.880;9.190;2023-03-01T01:59:57;23.80;23.00
37868;DHT22;24011;48.880;9.190;2023-03-01T02:02:31;23.70;23.00
37868;DHT22;24011;48.880;9.190;2023-03-01T02:05:03;23.70;22.90
37868;DHT22;24011;48.880;9.190;2023-03-01T02:07:41;23.70;23.00
37868;DHT22;24011;48.880;9.190;2023-03-01T02:10:14;23.70;23.00
37868;DHT22;24011;48.880;9.190;2023-03-01T02:12:48;23.70;23.00
37868;DHT22;24011;48.880;9.190;2023-03-01T02:15:20;23.80;23.00
37868;DHT22;24011;48.880;9.190;2023-03-01T02:17:55;23.80;23.00
37868;DHT22;24011;48.880;9.190;2023-03-01T02:20:33;23.70;23.00
37868;DHT22;24011;48.880;9.190;2023-03-01T02:23:08;23.70;23.00
37868;DHT22;24011;48.880;9.190;2023-03-01T02:25:47;23.70;23.00
37868;DHT22;24011;48.880;9.190;2023-03-01T02:28:27;23.70;23.10
37868;DHT22;24011;48.880;9.190;2023-03-01T02:31:00;23.70;23.00
37868;DHT22;24011;48.880;9.190;2023-03-01T02:33:49;23.70;23.10
37868;DHT22;24011;48.880;9.190;2023-03-01T02:36:22;23.70;23.10
37868;DHT22;24011;48.880;9.190;2023-03-01T02:38:57;23.70;23.10
37868;DHT22;24011;48.880;9.190;2023-03-01T02:41:32;23.70;23.10
37868;DHT22;24011;48.880;9.190;2023-03-01T02:44:13;23.60;23.10
37868;DHT22;24011;48.880;9.190;2023-03-01T02:46:48;23.60;23.10
37868;DHT22;24011;48.880;9.190;2023-03-01T02:49:23;23.70;23.10
37868;DHT22;24011;48.880;9.190;2023-03-01T02:55:11;23.60;23.20
37868;DHT22;24011;48.880;9.190;2023-03-01T02:57:48;23.70;23.20
37868;DHT22;24011;48.880;9.190;2023-03-01T03:00:30;23.70;23.20
37868;DHT22;24011;48.880;9.190;2023-03-01T03:03:04;23.60;23.20
37868;DHT22;24011;48.880;9.190;2023-03-01T03:05:37;23.60;23.20
37868;DHT22;24011;48.880;9.190;2023-03-01T03:08:09;23.70;23.20
37868;DHT22;24011;48.880;9.190;2023-03-01T03:10:43;23.70;23.30
37868;DHT22;24011;48.880;9.190;2023-03-01T03:13:14;23.70;23.30
37868;DHT22;24011;48.880;9.190;2023-03-01T03:15:47;23.70;23.30
37868;DHT22;24011;48.880;9.190;2023-03-01T03:18:19;23.60;23.20
37868;DHT22;24011;48.880;9.190;2023-03-01T03:20:52;23.70;23.20
37868;DHT22;24011;48.880;9.190;2023-03-01T03:23:26;23.70;23.30
37868;DHT22;24011;48.880;9.190;2023-03-01T03:26:00;23.60;23.30
37868;DHT22;24011;48.880;9.190;2023-03-01T03:28:35;23.70;23.30
37868;DHT22;24011;48.880;9.190;2023-03-01T03:31:13;23.60;23.30
37868;DHT22;24011;48.880;9.190;2023-03-01T03:33:46;23.60;23.20
37868;DHT22;24011;48.880;9.190;2023-03-01T03:36:20;23.60;23.30
37868;DHT22;24011;48.880;9.190;2023-03-01T03:38:52;23.70;23.30
37868;DHT22;24011;48.880;9.190;2023-03-01T03:41:24;23.60;23.30
37868;DHT22;24011;48.880;9.190;2023-03-01T03:43:59;23.60;23.30
37868;DHT22;24011;48.880;9.190;2023-03-01T03:46:34;23.60;23.30
37868;DHT22;24011;48.880;9.190;2023-03-01T03:49:06;23.60;23.30
37868;DHT22;24011;48.880;9.190;2023-03-01T03:51:39;23.60;23.30
37868;DHT22;24011;48.880;9.190;2023-03-01T03:54:14;23.60;23.30
37868;DHT22;24011;48.880;9.190;2023-03-01T03:56:46;23.50;23.30
37868;DHT22;24011;48.880;9.190;2023-03-01T03:59:18;23.30;23.30
37868;DHT22;24011;48.880;9.190;2023-03-01T04:01:52;23.30;23.30
37868;DHT22;24011;48.880;9.190;2023-03-01T04:04:27;23.30;23.20
37868;DHT22;24011;48.880;9.190;2023-03-01T04:06:58;23.30;23.10
37868;DHT22;24011;48.880;9.190;2023-03-01T04:09:32;23.30;23.00
37868;DHT22;24011;48.880;9.190;2023-03-01T04:12:03;23.30;22.90
37868;DHT22;24011;48.880;9.190;2023-03-01T04:14:34;23.30;22.90
37868;DHT22;24011;48.880;9.190;2023-03-01T04:17:09;23.30;22.80
37868;DHT22;24011;48.880;9.190;2023-03-01T04:19:40;23.30;22.70
37868;DHT22;24011;48.880;9.190;2023-03-01T04:22:12;23.40;22.70
37868;DHT22;24011;48.880;9.190;2023-03-01T04:24:50;23.40;22.50
37868;DHT22;24011;48.880;9.190;2023-03-01T04:27:27;23.40;22.50
37868;DHT22;24011;48.880;9.190;2023-03-01T04:30:01;23.30;22.40
37868;DHT22;24011;48.880;9.190;2023-03-01T04:32:37;23.30;22.30
37868;DHT22;24011;48.880;9.190;2023-03-01T04:35:10;23.30;22.40
37868;DHT22;24011;48.880;9.190;2023-03-01T04:37:41;23.30;22.30
37868;DHT22;24011;48.880;9.190;2023-03-01T04:40:14;23.30;22.20
37868;DHT22;24011;48.880;9.190;2023-03-01T04:42:46;23.30;22.20
37868;DHT22;24011;48.880;9.190;2023-03-01T04:45:19;23.20;22.20
37868;DHT22;24011;48.880;9.190;2023-03-01T04:47:53;23.10;22.20
37868;DHT22;24011;48.880;9.190;2023-03-01T04:50:28;23.20;22.20
37868;DHT22;24011;48.880;9.190;2023-03-01T04:53:01;23.30;22.10
37868;DHT22;24011;48.880;9.190;2023-03-01T04:55:33;23.20;22.10
37868;DHT22;24011;48.880;9.190;2023-03-01T04:58:06;23.10;22.10
37868;DHT22;24011;48.880;9.190;2023-03-01T05:00:40;23.10;22.10
37868;DHT22;24011;48.880;9.190;2023-03-01T05:03:15;23.20;22.00
37868;DHT22;24011;48.880;9.190;2023-03-01T05:05:47;23.20;21.90
37868;DHT22;24011;48.880;9.190;2023-03-01T05:08:20;23.30;21.90
37868;DHT22;24011;48.880;9.190;2023-03-01T05:10:52;23.30;21.90
37868;DHT22;24011;48.880;9.190;2023-03-01T05:13:23;23.20;21.90
37868;DHT22;24011;48.880;9.190;2023-03-01T05:15:58;23.20;21.80
37868;DHT22;24011;48.880;9.190;2023-03-01T05:18:34;23.20;21.70
37868;DHT22;24011;48.880;9.190;2023-03-01T05:21:08;23.20;21.80
37868;DHT22;24011;48.880;9.190;2023-03-01T05:23:38;23.30;21.80
37868;DHT22;24011;48.880;9.190;2023-03-01T05:26:09;23.30;21.70
37868;DHT22;24011;48.880;9.190;2023-03-01T05:28:55;23.20;21.60
37868;DHT22;24011;48.880;9.190;2023-03-01T05:31:28;23.30;21.70
37868;DHT22;24011;48.880;9.190;2023-03-01T05:34:00;23.30;21.60
37868;DHT22;24011;48.880;9.190;2023-03-01T05:36:31;23.30;21.60
37868;DHT22;24011;48.880;9.190;2023-03-01T05:39:02;23.30;21.60
37868;DHT22;24011;48.880;9.190;2023-03-01T05:41:33;23.30;21.50
37868;DHT22;24011;48.880;9.190;2023-03-01T05:44:06;23.30;21.60
37868;DHT22;24011;48.880;9.190;2023-03-01T05:46:40;23.20;21.50
37868;DHT22;24011;48.880;9.190;2023-03-01T05:49:13;23.30;21.60
37868;DHT22;24011;48.880;9.190;2023-03-01T05:51:47;23.30;21.50
37868;DHT22;24011;48.880;9.190;2023-03-01T05:54:18;23.30;21.60
37868;DHT22;24011;48.880;9.190;2023-03-01T05:56:48;23.40;21.40
37868;DHT22;24011;48.880;9.190;2023-03-01T05:59:18;23.30;21.40
37868;DHT22;24011;48.880;9.190;2023-03-01T06:01:48;23.30;21.40
37868;DHT22;24011;48.880;9.190;2023-03-01T06:04:19;23.30;21.60
37868;DHT22;24011;48.880;9.190;2023-03-01T06:06:50;23.30;21.50
37868;DHT22;24011;48.880;9.190;2023-03-01T06:09:19;23.20;21.40
37868;DHT22;24011;48.880;9.190;2023-03-01T06:11:49;23.30;21.40
37868;DHT22;24011;48.880;9.190;2023-03-01T06:14:51;23.30;21.50
37868;DHT22;24011;48.880;9.190;2023-03-01T06:48:57;23.20;21.50
37868;DHT22;24011;48.880;9.190;2023-03-01T06:51:27;23.30;21.60
37868;DHT22;24011;48.880;9.190;2023-03-01T06:53:59;23.20;21.60
37868;DHT22;24011;48.880;9.190;2023-03-01T06:56:29;23.30;21.60
37868;DHT22;24011;48.880;9.190;2023-03-01T06:58:58;23.30;21.60
37868;DHT22;24011;48.880;9.190;2023-03-01T07:01:28;23.30;21.50
37868;DHT22;24011;48.880;9.190;2023-03-01T07:04:01;23.30;21.50
37868;DHT22;24011;48.880;9.190;2023-03-01T07:06:30;23.30;21.50
37868;DHT22;24011;48.880;9.190;2023-03-01T07:09:00;23.30;21.50
37868;DHT22;24011;48.880;9.190;2023-03-01T07:11:30;23.30;21.50
37868;DHT22;24011;48.880;9.190;2023-03-01T07:13:59;23.30;21.50
37868;DHT22;24011;48.880;9.190;2023-03-01T07:16:28;23.30;21.40
37868;DHT22;24011;48.880;9.190;2023-03-01T07:18:58;23.40;21.50
37868;DHT22;24011;48.880;9.190;2023-03-01T07:21:32;23.40;21.40
37868;DHT22;24011;48.880;9.190;2023-03-01T07:24:01;23.40;21.30
37868;DHT22;24011;48.880;9.190;2023-03-01T07:35:08;23.50;21.20
37868;DHT22;24011;48.880;9.190;2023-03-01T07:37:41;23.50;21.30
37868;DHT22;24011;48.880;9.190;2023-03-01T07:40:13;23.50;21.30
37868;DHT22;24011;48.880;9.190;2023-03-01T07:42:46;23.50;21.20
37868;DHT22;24011;48.880;9.190;2023-03-01T07:45:15;23.40;21.20
37868;DHT22;24011;48.880;9.190;2023-03-01T07:47:45;23.30;21.30
37868;DHT22;24011;48.880;9.190;2023-03-01T07:50:15;23.50;21.30
37868;DHT22;24011;48.880;9.190;2023-03-01T07:52:47;23.40;21.30
37868;DHT22;24011;48.880;9.190;2023-03-01T07:55:17;23.50;21.30
37868;DHT22;24011;48.880;9.190;2023-03-01T07:57:50;23.50;21.30
37868;DHT22;24011;48.880;9.190;2023-03-01T08:00:20;23.50;21.40
37868;DHT22;24011;48.880;9.190;2023-03-01T08:02:49;23.50;21.30
37868;DHT22;24011;48.880;9.190;2023-03-01T08:05:21;23.50;21.30
37868;DHT22;24011;48.880;9.190;2023-03-01T08:07:52;23.50;21.30
37868;DHT22;24011;48.880;9.190;2023-03-01T08:10:21;23.60;21.30
37868;DHT22;24011;48.880;9.190;2023-03-01T08:12:51;23.60;21.30
37868;DHT22;24011;48.880;9.190;2023-03-01T08:15:23;23.70;21.20
37868;DHT22;24011;48.880;9.190;2023-03-01T08:17:53;23.60;21.30
37868;DHT22;24011;48.880;9.190;2023-03-01T08:20:22;23.60;21.20
37868;DHT22;24011;48.880;9.190;2023-03-01T08:22:53;23.70;21.30
37868;DHT22;24011;48.880;9.190;2023-03-01T08:25:23;23.60;21.40
37868;DHT22;24011;48.880;9.190;2023-03-01T08:27:53;23.60;21.40
37868;DHT22;24011;48.880;9.190;2023-03-01T08:30:22;23.70;21.40
37868;DHT22;24011;48.880;9.190;2023-03-01T08:32:52;23.70;21.40
37868;DHT22;24011;48.880;9.190;2023-03-01T08:35:21;23.70;21.30
37868;DHT22;24011;48.880;9.190;2023-03-01T08:37:53;23.60;21.40
37868;DHT22;24011;48.880;9.190;2023-03-01T08:40:22;23.70;21.50
37868;DHT22;24011;48.880;9.190;2023-03-01T08:42:52;23.70;21.40
37868;DHT22;24011;48.880;9.190;2023-03-01T08:45:21;23.80;21.40
37868;DHT22;24011;48.880;9.190;2023-03-01T08:47:52;23.90;21.30
37868;DHT22;24011;48.880;9.190;2023-03-01T08:50:22;24.20;21.10
37868;DHT22;24011;48.880;9.190;2023-03-01T08:52:53;24.20;20.90
37868;DHT22;24011;48.880;9.190;2023-03-01T08:55:22;24.20;21.00
37868;DHT22;24011;48.880;9.190;2023-03-01T08:57:51;24.30;20.90
37868;DHT22;24011;48.880;9.190;2023-03-01T09:00:21;24.40;20.90
37868;DHT22;24011;48.880;9.190;2023-03-01T09:02:50;24.30;21.00
37868;DHT22;24011;48.880;9.190;2023-03-01T09:09:35;24.10;21.00
37868;DHT22;24011;48.880;9.190;2023-03-01T09:12:08;24.30;21.00
37868;DHT22;24011;48.880;9.190;2023-03-01T09:14:39;24.30;21.00
37868;DHT22;24011;48.880;9.190;2023-03-01T09:17:09;24.40;21.10
37868;DHT22;24011;48.880;9.190;2023-03-01T09:19:41;24.30;20.90
37868;DHT22;24011;48.880;9.190;2023-03-01T09:22:10;24.30;21.00
37868;DHT22;24011;48.880;9.190;2023-03-01T09:24:40;24.30;21.10
37868;DHT22;24011;48.880;9.190;2023-03-01T09:27:10;24.30;21.10
37868;DHT22;24011;48.880;9.190;2023-03-01T09:29:40;24.30;21.00
37868;DHT22;24011;48.880;9.190;2023-03-01T09:32:09;24.40;21.00
37868;DHT22;24011;48.880;9.190;2023-03-01T09:34:38;24.40;21.00
37868;DHT22;24011;48.880;9.190;2023-03-01T09:37:21;24.30;21.10
37868;DHT22;24011;48.880;9.190;2023-03-01T09:39:51;24.20;21.10
37868;DHT22;24011;48.880;9.190;2023-03-01T09:42:20;24.10;21.10
37868;DHT22;24011;48.880;9.190;2023-03-01T09:44:53;24.10;21.20
37868;DHT22;24011;48.880;9.190;2023-03-01T09:47:27;24.10;21.20
37868;DHT22;24011;48.880;9.190;2023-03-01T09:50:03;24.10;21.40
37868;DHT22;24011;48.880;9.190;2023-03-01T09:52:38;24.10;21.40
37868;DHT22;24011;48.880;9.190;2023-03-01T09:55:12;24.10;21.40
37868;DHT22;24011;48.880;9.190;2023-03-01T09:57:47;24.00;21.40
37868;DHT22;24011;48.880;9.190;2023-03-01T10:00:27;24.10;21.40
37868;DHT22;24011;48.880;9.190;2023-03-01T10:03:07;24.00;21.40
37868;DHT22;24011;48.880;9.190;2023-03-01T10:05:43;24.00;21.40
37868;DHT22;24011;48.880;9.190;2023-03-01T10:08:34;24.00;21.50
37868;DHT22;24011;48.880;9.190;2023-03-01T10:11:20;24.00;21.60
37868;DHT22;24011;48.880;9.190;2023-03-01T10:14:04;24.00;21.60
37868;DHT22;24011;48.880;9.190;2023-03-01T10:16:40;24.10;21.60
37868;DHT22;24011;48.880;9.190;2023-03-01T10:19:14;24.10;21.60
37868;DHT22;24011;48.880;9.190;2023-03-01T10:21:45;24.10;21.60
37868;DHT22;24011;48.880;9.190;2023-03-01T10:24:18;24.10;21.60
37868;DHT22;24011;48.880;9.190;2023-03-01T10:26:54;24.10;21.60
37868;DHT22;24011;48.880;9.190;2023-03-01T10:29:27;24.20;21.60
37868;DHT22;24011;48.880;9.190;2023-03-01T10:31:57;24.20;21.60
37868;DHT22;24011;48.880;9.190;2023-03-01T10:34:29;24.10;21.60
37868;DHT22;24011;48.880;9.190;2023-03-01T10:37:09;24.10;21.60
37868;DHT22;24011;48.880;9.190;2023-03-01T10:39:55;24.10;21.50
37868;DHT22;24011;48.880;9.190;2023-03-01T10:42:29;24.10;21.50
37868;DHT22;24011;48.880;9.190;2023-03-01T10:45:15;24.10;21.60
37868;DHT22;24011;48.880;9.190;2023-03-01T10:47:45;24.20;21.50
37868;DHT22;24011;48.880;9.190;2023-03-01T10:50:21;24.10;21.40
37868;DHT22;24011;48.880;9.190;2023-03-01T10:52:58;24.10;21.50
37868;DHT22;24011;48.880;9.190;2023-03-01T10:55:34;24.10;21.50
37868;DHT22;24011;48.880;9.190;2023-03-01T10:58:17;24.20;21.40
37868;DHT22;24011;48.880;9.190;2023-03-01T11:00:49;24.10;21.50
37868;DHT22;24011;48.880;9.190;2023-03-01T11:03:24;24.10;21.50
37868;DHT22;24011;48.880;9.190;2023-03-01T11:05:57;24.10;21.60
37868;DHT22;24011;48.880;9.190;2023-03-01T11:08:36;24.10;21.50
37868;DHT22;24011;48.880;9.190;2023-03-01T11:11:23;24.10;21.50
37868;DHT22;24011;48.880;9.190;2023-03-01T11:14:00;24.10;21.50
37868;DHT22;24011;48.880;9.190;2023-03-01T11:16:47;24.10;21.60
37868;DHT22;24011;48.880;9.190;2023-03-01T11:32:13;24.10;21.50
37868;DHT22;24011;48.880;9.190;2023-03-01T11:39:11;24.10;21.50
37868;DHT22;24011;48.880;9.190;2023-03-01T12:39:04;24.10;21.40
37868;DHT22;24011;48.880;9.190;2023-03-01T13:13:20;24.30;21.40
37868;DHT22;24011;48.880;9.190;2023-03-01T13:15:51;24.40;21.40
37868;DHT22;24011;48.880;9.190;2023-03-01T13:18:33;24.40;21.40
37868;DHT22;24011;48.880;9.190;2023-03-01T13:21:03;24.40;21.30
37868;DHT22;24011;48.880;9.190;2023-03-01T13:23:35;24.40;21.30
37868;DHT22;24011;48.880;9.190;2023-03-01T13:26:10;24.50;21.40
37868;DHT22;24011;48.880;9.190;2023-03-01T13:28:50;24.60;21.20
37868;DHT22;24011;48.880;9.190;2023-03-01T13:34:43;24.50;21.30
37868;DHT22;24011;48.880;9.190;2023-03-01T13:37:22;24.50;21.30
37868;DHT22;24011;48.880;9.190;2023-03-01T13:39:53;24.50;21.40
37868;DHT22;24011;48.880;9.190;2023-03-01T13:42:37;24.50;21.40
37868;DHT22;24011;48.880;9.190;2023-03-01T13:45:19;24.50;21.40
37868;DHT22;24011;48.880;9.190;2023-03-01T13:47:56;24.40;21.50
37868;DHT22;24011;48.880;9.190;2023-03-01T13:50:33;24.50;21.40
37868;DHT22;24011;48.880;9.190;2023-03-01T13:53:04;24.50;21.40
37868;DHT22;24011;48.880;9.190;2023-03-01T13:55:40;24.60;21.40
37868;DHT22;24011;48.880;9.190;2023-03-01T13:58:21;24.60;21.30
37868;DHT22;24011;48.880;9.190;2023-03-01T14:00:58;24.60;21.40
37868;DHT22;24011;48.880;9.190;2023-03-01T14:03:31;24.60;21.50
37868;DHT22;24011;48.880;9.190;2023-03-01T14:06:06;24.50;21.50
37868;DHT22;24011;48.880;9.190;2023-03-01T14:08:48;24.70;21.50
37868;DHT22;24011;48.880;9.190;2023-03-01T14:11:29;24.60;21.30
37868;DHT22;24011;48.880;9.190;2023-03-01T14:14:24;24.70;21.40
37868;DHT22;24011;48.880;9.190;2023-03-01T14:17:08;24.80;21.40
37868;DHT22;24011;48.880;9.190;2023-03-01T14:19:45;24.70;21.40
37868;DHT22;24011;48.880;9.190;2023-03-01T14:22:20;24.80;21.40
37868;DHT22;24011;48.880;9.190;2023-03-01T14:24:54;24.80;21.40
37868;DHT22;24011;48.880;9.190;2023-03-01T14:27:26;24.90;21.40
37868;DHT22;24011;48.880;9.190;2023-03-01T14:29:56;24.80;21.20
37868;DHT22;24011;48.880;9.190;2023-03-01T14:32:30;24.90;21.30
37868;DHT22;24011;48.880;9.190;2023-03-01T14:35:01;25.00;21.20
37868;DHT22;24011;48.880;9.190;2023-03-01T14:37:33;25.00;21.10
37868;DHT22;24011;48.880;9.190;2023-03-01T14:40:04;24.80;21.30
37868;DHT22;24011;48.880;9.190;2023-03-01T14:42:34;25.00;21.20
37868;DHT22;24011;48.880;9.190;2023-03-01T14:45:07;24.80;21.10
37868;DHT22;24011;48.880;9.190;2023-03-01T14:47:38;24.90;21.30
37868;DHT22;24011;48.880;9.190;2023-03-01T14:50:21;24.90;21.20
37868;DHT22;24011;48.880;9.190;2023-03-01T14:52:53;24.90;21.30
37868;DHT22;24011;48.880;9.190;2023-03-01T14:55:29;25.10;21.30
37868;DHT22;24011;48.880;9.190;2023-03-01T14:57:59;25.20;21.60
37868;DHT22;24011;48.880;9.190;2023-03-01T15:00:31;25.10;21.00
37868;DHT22;24011;48.880;9.190;2023-03-01T15:03:07;25.30;21.20
37868;DHT22;24011;48.880;9.190;2023-03-01T15:05:42;25.30;21.10
37868;DHT22;24011;48.880;9.190;2023-03-01T15:08:17;25.40;21.10
37868;DHT22;24011;48.880;9.190;2023-03-01T15:10:59;25.50;21.00
37868;DHT22;24011;48.880;9.190;2023-03-01T15:13:31;25.40;21.00
37868;DHT22;24011;48.880;9.190;2023-03-01T15:16:11;25.60;21.10
37868;DHT22;24011;48.880;9.190;2023-03-01T15:18:45;25.50;20.90
37868;DHT22;24011;48.880;9.190;2023-03-01T15:21:17;25.70;20.90
37868;DHT22;24011;48.880;9.190;2023-03-01T15:23:49;25.60;20.70
37868;DHT22;24011;48.880;9.190;2023-03-01T15:26:25;25.70;20.80
37868;DHT22;24011;48.880;9.190;2023-03-01T15:29:01;25.70;20.50
37868;DHT22;24011;48.880;9.190;2023-03-01T15:31:34;25.70;20.80
37868;DHT22;24011;48.880;9.190;2023-03-01T15:34:22;25.80;20.60
37868;DHT22;24011;48.880;9.190;2023-03-01T15:36:53;25.80;20.60
37868;DHT22;24011;48.880;9.190;2023-03-01T15:39:35;25.80;20.70
37868;DHT22;24011;48.880;9.190;2023-03-01T15:42:10;25.90;20.50
37868;DHT22;24011;48.880;9.190;2023-03-01T15:44:40;25.90;20.60
37868;DHT22;24011;48.880;9.190;2023-03-01T15:47:38;25.90;20.40
37868;DHT22;24011;48.880;9.190;2023-03-01T15:50:17;25.90;20.50
37868;DHT22;24011;48.880;9.190;2023-03-01T15:52:47;26.10;20.60
37868;DHT22;24011;48.880;9.190;2023-03-01T15:55:22;26.00;20.30
37868;DHT22;24011;48.880;9.190;2023-03-01T15:57:59;26.00;20.70
37868;DHT22;24011;48.880;9.190;2023-03-01T16:00:32;26.10;20.30
37868;DHT22;24011;48.880;9.190;2023-03-01T16:03:02;26.00;20.10
37868;DHT22;24011;48.880;9.190;2023-03-01T16:05:34;26.00;20.10
37868;DHT22;24011;48.880;9.190;2023-03-01T16:08:07;26.00;20.10
37868;DHT22;24011;48.880;9.190;2023-03-01T16:10:37;25.90;20.10
37868;DHT22;24011;48.880;9.190;2023-03-01T16:13:08;26.00;20.10
37868;DHT22;24011;48.880;9.190;2023-03-01T16:15:39;25.90;20.20
37868;DHT22;24011;48.880;9.190;2023-03-01T16:18:10;25.90;20.20
37868;DHT22;24011;48.880;9.190;2023-03-01T16:20:44;25.80;20.20
37868;DHT22;24011;48.880;9.190;2023-03-01T16:23:15;25.70;20.20
37868;DHT22;24011;48.880;9.190;2023-03-01T16:25:49;25.70;20.20
37868;DHT22;24011;48.880;9.190;2023-03-01T16:28:35;25.60;20.20
37868;DHT22;24011;48.880;9.190;2023-03-01T16:31:09;25.60;20.30
37868;DHT22;24011;48.880;9.190;2023-03-01T16:33:40;25.60;20.30
37868;DHT22;24011;48.880;9.190;2023-03-01T16:36:19;25.50;20.30
37868;DHT22;24011;48.880;9.190;2023-03-01T16:38:53;25.50;20.30
37868;DHT22;24011;48.880;9.190;2023-03-01T16:41:24;25.50;20.30
37868;DHT22;24011;48.880;9.190;2023-03-01T16:43:55;25.50;20.30
37868;DHT22;24011;48.880;9.190;2023-03-01T16:46:33;25.40;20.40
37868;DHT22;24011;48.880;9.190;2023-03-01T16:49:07;25.40;20.30
37868;DHT22;24011;48.880;9.190;2023-03-01T16:51:40;25.50;20.40
37868;DHT22;24011;48.880;9.190;2023-03-01T16:54:13;25.50;20.40
37868;DHT22;24011;48.880;9.190;2023-03-01T16:56:44;25.50;20.30
37868;DHT22;24011;48.880;9.190;2023-03-01T16:59:16;25.50;20.60
37868;DHT22;24011;48.880;9.190;2023-03-01T17:01:50;25.50;20.30
37868;DHT22;24011;48.880;9.190;2023-03-01T17:04:21;25.50;20.20
37868;DHT22;24011;48.880;9.190;2023-03-01T17:06:55;25.60;20.30
37868;DHT22;24011;48.880;9.190;2023-03-01T17:09:26;25.60;20.10
37868;DHT22;24011;48.880;9.190;2023-03-01T17:11:58;25.60;20.20
37868;DHT22;24011;48.880;9.190;2023-03-01T17:14:30;25.60;20.20
37868;DHT22;24011;48.880;9.190;2023-03-01T17:17:00;25.60;20.10
37868;DHT22;24011;48.880;9.190;2023-03-01T17:19:32;25.60;20.00
37868;DHT22;24011;48.880;9.190;2023-03-01T17:22:09;25.60;20.00
37868;DHT22;24011;48.880;9.190;2023-03-01T17:24:42;25.60;20.00
37868;DHT22;24011;48.880;9.190;2023-03-01T17:27:16;25.50;20.00
37868;DHT22;24011;48.880;9.190;2023-03-01T17:29:50;25.50;20.00
37868;DHT22;24011;48.880;9.190;2023-03-01T17:32:21;25.50;20.00
37868;DHT22;24011;48.880;9.190;2023-03-01T17:34:52;25.40;20.00
37868;DHT22;24011;48.880;9.190;2023-03-01T17:37:26;25.40;20.10
37868;DHT22;24011;48.880;9.190;2023-03-01T17:39:59;25.30;20.10
37868;DHT22;24011;48.880;9.190;2023-03-01T17:42:30;25.30;20.10
37868;DHT22;24011;48.880;9.190;2023-03-01T17:45:03;25.20;20.10
37868;DHT22;24011;48.880;9.190;2023-03-01T17:47:36;25.20;20.10
37868;DHT22;24011;48.880;9.190;2023-03-01T17:50:09;25.20;20.10
37868;DHT22;24011;48.880;9.190;2023-03-01T17:52:43;25.10;20.00
37868;DHT22;24011;48.880;9.190;2023-03-01T17:55:14;25.10;20.10
37868;DHT22;24011;48.880;9.190;2023-03-01T17:57:46;25.10;20.10
37868;DHT22;24011;48.880;9.190;2023-03-01T18:00:17;25.00;20.10
37868;DHT22;24011;48.880;9.190;2023-03-01T18:02:53;25.00;20.20
37868;DHT22;24011;48.880;9.190;2023-03-01T18:05:26;25.00;20.10
37868;DHT22;24011;48.880;9.190;2023-03-01T18:08:02;25.00;20.10
37868;DHT22;24011;48.880;9.190;2023-03-01T18:10:35;24.90;20.10
37868;DHT22;24011;48.880;9.190;2023-03-01T18:13:06;24.90;20.10
37868;DHT22;24011;48.880;9.190;2023-03-01T18:15:42;24.90;20.10
37868;DHT22;24011;48.880;9.190;2023-03-01T18:18:16;24.90;20.20
37868;DHT22;24011;48.880;9.190;2023-03-01T18:20:55;24.80;20.20
37868;DHT22;24011;48.880;9.190;2023-03-01T18:23:30;24.80;20.20
37868;DHT22;24011;48.880;9.190;2023-03-01T18:26:04;24.80;20.30
37868;DHT22;24011;48.880;9.190;2023-03-01T18:28:35;24.80;20.30
37868;DHT22;24011;48.880;9.190;2023-03-01T18:31:09;24.70;20.20
37868;DHT22;24011;48.880;9.190;2023-03-01T18:33:40;24.80;20.20
37868;DHT22;24011;48.880;9.190;2023-03-01T18:36:18;24.70;20.20
37868;DHT22;24011;48.880;9.190;2023-03-01T18:38:54;24.70;20.20
37868;DHT22;24011;48.880;9.190;2023-03-01T18:41:27;24.70;20.20
37868;DHT22;24011;48.880;9.190;2023-03-01T18:44:03;24.70;20.30
37868;DHT22;24011;48.880;9.190;2023-03-01T18:46:37;24.70;20.20
37868;DHT22;24011;48.880;9.190;2023-03-01T18:49:11;24.60;20.30